Time;durP1;ratioP1;P1;durP2;ratioP2;P2;SDS_P1;SDS_P2;PMS_P1;PMS_P2;Temp;Humidity;BMP_temperature;BMP_pressure;BME280_temperature;BME280_humidity;BME280_pressure;Samples;Min_cycle;Max_cycle;Signal;HPM_P1;HPM_P2
2023/03/29 00:02:09;;;;;;;22.80;2.95;;;;;;;;;;5063443;28;20080;-65
2023/03/29 00:05:05;;;;;;;20.42;2.85;;;;;;;;;;5066889;28;20132;-67
2023/03/29 00:07:35;;;;;;;23.05;3.20;;;;;;;;;;5064452;28;20408;-64
2023/03/29 00:10:04;;;;;;;16.92;2.72;;;;;;;;;;5066015;28;20068;-66
2023/03/29 00:12:32;;;;;;;17.40;2.85;;;;;;;;;;5063480;28;20080;-64
2023/03/29 00:14:57;;;;;;;19.73;2.80;;;;;;;;;;5058197;28;20052;-66
2023/03/29 00:17:24;;;;;;;17.35;2.72;;;;;;;;;;5057194;28;20143;-65
2023/03/29 00:20:30;;;;;;;11.85;2.90;;;;;;;;;;5067923;28;20124;-64
2023/03/29 00:24:10;;;;;;;16.85;3.33;;;;;;;;;;5065446;28;20174;-65
2023/03/29 00:27:50;;;;;;;14.18;2.95;;;;;;;;;;5062893;28;20439;-66
2023/03/29 00:31:31;;;;;;;16.98;3.53;;;;;;;;;;5061065;28;20173;-65
2023/03/29 00:35:12;;;;;;;18.48;2.60;;;;;;;;;;5058573;28;20119;-67
2023/03/29 00:38:52;;;;;;;15.88;3.10;;;;;;;;;;5061058;28;20051;-65
2023/03/29 00:42:33;;;;;;;18.50;3.10;;;;;;;;;;5065295;28;20055;-67
2023/03/29 00:46:14;;;;;;;21.15;3.05;;;;;;;;;;5055684;28;20053;-65
2023/03/29 00:49:54;;;;;;;18.10;3.13;;;;;;;;;;5063404;28;20068;-65
2023/03/29 00:53:40;;;;;;;18.77;3.20;;;;;;;;;;5063119;28;20072;-63
2023/03/29 00:56:44;;;;;;;14.15;3.00;;;;;;;;;;5063409;28;20052;-64
2023/03/29 00:59:23;;;;;;;20.42;3.03;;;;;;;;;;5062708;28;20408;-66
2023/03/29 01:01:52;;;;;;;14.88;2.88;;;;;;;;;;5063290;28;20045;-64
2023/03/29 01:04:30;;;;;;;21.40;3.25;;;;;;;;;;5057276;28;20059;-65
2023/03/29 01:07:41;;;;;;;23.42;3.13;;;;;;;;;;5076324;28;20143;-65
2023/03/29 01:11:33;;;;;;;20.17;2.83;;;;;;;;;;5064096;28;20045;-65
2023/03/29 01:15:14;;;;;;;15.43;3.38;;;;;;;;;;5070783;28;20044;-65
2023/03/29 01:18:57;;;;;;;18.40;4.10;;;;;;;;;;5060236;28;20083;-64
2023/03/29 01:22:44;;;;;;;17.60;4.13;;;;;;;;;;5058470;28;20373;-68
2023/03/29 01:26:13;;;;;;;17.50;3.22;;;;;;;;;;5057273;28;20109;-64
2023/03/29 01:29:56;;;;;;;19.23;3.35;;;;;;;;;;5064863;28;20468;-65
2023/03/29 01:33:26;;;;;;;20.48;3.40;;;;;;;;;;5059534;28;20052;-65
2023/03/29 01:36:48;;;;;;;14.15;3.42;;;;;;;;;;5063720;28;20048;-65
2023/03/29 01:40:27;;;;;;;15.75;3.55;;;;;;;;;;5064282;28;20050;-64
2023/03/29 01:44:14;;;;;;;16.40;3.28;;;;;;;;;;5062423;28;20408;-63
2023/03/29 01:48:10;;;;;;;19.25;3.47;;;;;;;;;;5057827;28;20178;-64
2023/03/29 01:51:54;;;;;;;20.52;3.50;;;;;;;;;;5064511;28;20115;-64
2023/03/29 01:55:34;;;;;;;19.85;4.43;;;;;;;;;;5068075;28;20631;-64
2023/03/29 01:59:14;;;;;;;17.13;3.47;;;;;;;;;;5065444;28;20056;-63
2023/03/29 02:02:55;;;;;;;17.27;3.83;;;;;;;;;;5062397;28;20445;-63
2023/03/29 02:06:38;;;;;;;23.63;3.80;;;;;;;;;;5058908;28;20396;-63
2023/03/29 02:10:18;;;;;;;20.20;3.90;;;;;;;;;;5061027;28;20149;-64
2023/03/29 02:13:59;;;;;;;17.67;3.83;;;;;;;;;;5062698;28;20484;-64
2023/03/29 02:17:49;;;;;;;22.33;3.38;;;;;;;;;;5064020;28;20063;-64
2023/03/29 02:21:28;;;;;;;21.27;3.67;;;;;;;;;;5062390;28;20049;-64
2023/03/29 02:25:09;;;;;;;15.32;3.25;;;;;;;;;;5062377;28;20048;-64
2023/03/29 02:28:50;;;;;;;11.90;3.28;;;;;;;;;;5060687;28;20131;-64
2023/03/29 02:32:40;;;;;;;14.98;3.50;;;;;;;;;;5055136;28;20114;-65
2023/03/29 02:36:23;;;;;;;22.65;3.58;;;;;;;;;;5070883;28;20396;-63
2023/03/29 02:40:06;;;;;;;22.20;3.67;;;;;;;;;;5064494;28;20044;-63
2023/03/29 02:43:43;;;;;;;15.07;4.30;;;;;;;;;;5062504;28;20400;-63
2023/03/29 02:47:24;;;;;;;22.25;4.10;;;;;;;;;;5060919;28;20063;-64
2023/03/29 02:51:04;;;;;;;21.67;4.32;;;;;;;;;;5069003;28;20543;-64
2023/03/29 02:54:44;;;;;;;15.70;4.45;;;;;;;;;;5062347;28;20085;-66
2023/03/29 02:58:25;;;;;;;17.60;3.90;;;;;;;;;;5064209;28;20056;-64
2023/03/29 03:02:05;;;;;;;18.50;5.13;;;;;;;;;;5063992;28;20449;-66
2023/03/29 03:05:45;;;;;;;18.27;4.47;;;;;;;;;;5063316;28;20048;-64
2023/03/29 03:09:26;;;;;;;21.77;4.55;;;;;;;;;;5063957;28;20060;-63
2023/03/29 03:13:06;;;;;;;21.95;4.57;;;;;;;;;;5066259;28;20453;-63
2023/03/29 03:16:46;;;;;;;18.35;4.22;;;;;;;;;;5063630;28;20078;-64
2023/03/29 03:20:30;;;;;;;17.55;4.28;;;;;;;;;;5066094;28;20382;-66
2023/03/29 03:24:10;;;;;;;24.08;4.85;;;;;;;;;;5063374;28;20071;-64
2023/03/29 03:27:50;;;;;;;22.05;4.45;;;;;;;;;;5061558;28;20079;-69
2023/03/29 03:31:32;;;;;;;18.98;4.65;;;;;;;;;;5063185;28;20346;-66
2023/03/29 03:35:11;;;;;;;16.63;4.38;;;;;;;;;;5063650;28;20056;-65
2023/03/29 03:38:51;;;;;;;21.15;3.97;;;;;;;;;;5058748;28;20040;-64
2023/03/29 03:42:31;;;;;;;18.83;4.03;;;;;;;;;;5062085;28;20072;-63
2023/03/29 03:46:12;;;;;;;16.20;4.03;;;;;;;;;;5057064;28;20066;-65
2023/03/29 03:49:52;;;;;;;16.90;3.78;;;;;;;;;;5061638;28;20451;-65
2023/03/29 03:53:32;;;;;;;21.10;4.40;;;;;;;;;;5059195;28;20037;-67
2023/03/29 03:57:13;;;;;;;18.98;4.07;;;;;;;;;;5051602;28;20081;-63
2023/03/29 04:00:53;;;;;;;13.93;4.15;;;;;;;;;;5061478;28;20085;-63
2023/03/29 04:04:33;;;;;;;14.52;3.78;;;;;;;;;;5059552;28;20044;-64
2023/03/29 04:08:14;;;;;;;17.65;4.07;;;;;;;;;;5062586;28;20036;-63
2023/03/29 04:11:55;;;;;;;15.07;4.82;;;;;;;;;;5060713;28;20511;-64
2023/03/29 04:15:38;;;;;;;22.70;4.63;;;;;;;;;;5060220;28;20048;-65
2023/03/29 04:19:18;;;;;;;11.63;3.22;;;;;;;;;;5060105;28;20764;-64
2023/03/29 04:22:59;;;;;;;12.88;4.47;;;;;;;;;;5057882;28;20044;-64
2023/03/29 04:26:39;;;;;;;15.50;4.82;;;;;;;;;;5056449;28;20166;-64
2023/03/29 04:30:19;;;;;;;19.55;3.90;;;;;;;;;;5059744;28;20063;-65
2023/03/29 04:34:00;;;;;;;22.10;4.13;;;;;;;;;;5054680;28;20051;-65
2023/03/29 04:37:39;;;;;;;17.17;4.53;;;;;;;;;;5060129;28;20226;-65
2023/03/29 04:40:13;;;;;;;13.27;3.65;;;;;;;;;;5062611;28;20044;-64
2023/03/29 04:43:22;;;;;;;15.93;4.32;;;;;;;;;;5069093;28;20040;-63
2023/03/29 04:47:00;;;;;;;12.90;3.97;;;;;;;;;;5066965;28;20494;-64
2023/03/29 04:50:42;;;;;;;15.20;4.30;;;;;;;;;;5064773;28;20048;-64
2023/03/29 04:54:22;;;;;;;18.13;4.38;;;;;;;;;;5063732;28;20036;-63
2023/03/29 04:58:04;;;;;;;20.10;4.63;;;;;;;;;;5066055;28;20479;-63
2023/03/29 05:01:44;;;;;;;15.90;3.70;;;;;;;;;;5067011;28;20155;-67
2023/03/29 05:05:25;;;;;;;21.95;4.10;;;;;;;;;;5077215;28;20056;-62
2023/03/29 05:09:05;;;;;;;25.08;5.18;;;;;;;;;;5061814;28;20085;-64
2023/03/29 05:12:45;;;;;;;30.42;4.80;;;;;;;;;;5058558;28;20037;-64
2023/03/29 05:16:28;;;;;;;11.60;4.00;;;;;;;;;;5065307;28;20040;-62
2023/03/29 05:20:08;;;;;;;15.60;4.40;;;;;;;;;;5064554;28;20454;-65
2023/03/29 05:23:46;;;;;;;18.98;4.32;;;;;;;;;;5062876;28;20063;-63
2023/03/29 05:27:27;;;;;;;14.82;4.07;;;;;;;;;;5065948;28;20123;-64
2023/03/29 05:31:07;;;;;;;20.92;4.50;;;;;;;;;;5065036;28;20143;-63
2023/03/29 05:34:47;;;;;;;22.23;4.65;;;;;;;;;;5064082;28;20310;-65
2023/03/29 05:38:29;;;;;;;20.05;4.60;;;;;;;;;;5065141;28;20100;-64
2023/03/29 05:42:11;;;;;;;16.92;4.32;;;;;;;;;;5064478;28;20426;-64
2023/03/29 05:45:49;;;;;;;16.95;4.82;;;;;;;;;;5063513;28;20052;-65
2023/03/29 05:49:29;;;;;;;25.80;5.38;;;;;;;;;;5059778;28;20044;-68
2023/03/29 05:53:09;;;;;;;12.23;3.75;;;;;;;;;;5068554;28;20454;-65
2023/03/29 06:00:30;;;;;;;19.00;4.38;;;;;;;;;;5067744;28;20180;-65
2023/03/29 06:04:07;;;;;;;16.55;5.05;;;;;;;;;;5064186;28;20049;-66
2023/03/29 06:07:47;;;;;;;21.27;6.05;;;;;;;;;;5068735;28;20041;-65
2023/03/29 06:11:28;;;;;;;16.95;5.07;;;;;;;;;;5063619;28;20053;-69
2023/03/29 06:15:09;;;;;;;24.55;5.82;;;;;;;;;;5067410;28;20488;-68
2023/03/29 06:18:49;;;;;;;26.85;5.32;;;;;;;;;;5063343;28;20052;-65
2023/03/29 06:22:29;;;;;;;18.08;5.97;;;;;;;;;;5059792;28;20503;-64
2023/03/29 06:26:09;;;;;;;24.45;5.78;;;;;;;;;;5061410;28;20382;-66
2023/03/29 06:29:50;;;;;;;21.63;5.28;;;;;;;;;;5060537;28;20052;-66
2023/03/29 06:33:31;;;;;;;20.90;5.32;;;;;;;;;;5062806;28;20044;-65
2023/03/29 06:37:10;;;;;;;25.48;5.20;;;;;;;;;;5064422;28;20079;-65
2023/03/29 06:40:51;;;;;;;20.70;5.28;;;;;;;;;;5061671;28;20236;-66
2023/03/29 06:44:31;;;;;;;22.80;4.93;;;;;;;;;;5059794;28;20048;-63
2023/03/29 06:48:11;;;;;;;26.98;5.40;;;;;;;;;;5065173;28;20435;-65
2023/03/29 06:51:52;;;;;;;21.30;5.72;;;;;;;;;;5068104;28;20040;-64
2023/03/29 06:55:32;;;;;;;21.80;4.97;;;;;;;;;;5065276;28;20056;-66
2023/03/29 06:59:12;;;;;;;23.77;4.95;;;;;;;;;;5058709;28;20105;-66
2023/03/29 07:02:52;;;;;;;22.67;5.45;;;;;;;;;;5057328;28;20549;-64
2023/03/29 07:06:35;;;;;;;21.15;4.95;;;;;;;;;;5064394;28;20144;-66
2023/03/29 07:10:15;;;;;;;22.23;5.25;;;;;;;;;;5066862;28;20157;-65
2023/03/29 07:13:55;;;;;;;18.23;4.32;;;;;;;;;;5064674;28;20412;-66
2023/03/29 07:17:35;;;;;;;18.05;4.82;;;;;;;;;;5063107;28;20056;-68
2023/03/29 07:21:16;;;;;;;20.70;4.75;;;;;;;;;;5066848;28;20526;-65
2023/03/29 07:24:56;;;;;;;19.38;5.18;;;;;;;;;;5068051;28;20056;-63
2023/03/29 07:28:38;;;;;;;24.85;5.43;;;;;;;;;;5064096;28;20055;-64
2023/03/29 07:32:18;;;;;;;19.52;5.18;;;;;;;;;;5057838;28;20044;-65
2023/03/29 07:35:58;;;;;;;22.52;4.85;;;;;;;;;;5068140;28;20462;-66
2023/03/29 07:39:39;;;;;;;24.90;5.20;;;;;;;;;;5062136;28;20119;-65
2023/03/29 07:43:19;;;;;;;22.17;5.47;;;;;;;;;;5055134;28;20060;-65
2023/03/29 07:46:59;;;;;;;29.90;5.10;;;;;;;;;;5057183;28;20036;-66
2023/03/29 07:50:40;;;;;;;23.63;5.60;;;;;;;;;;5063936;28;20048;-64
2023/03/29 07:54:13;;;;;;;22.73;5.55;;;;;;;;;;5065574;28;20043;-65
2023/03/29 07:57:54;;;;;;;21.80;4.80;;;;;;;;;;5059510;28;20707;-65
2023/03/29 08:00:54;;;;;;;27.92;6.22;;;;;;;;;;5064311;28;20076;-64
2023/03/29 08:03:21;;;;;;;24.52;6.20;;;;;;;;;;5060060;28;20041;-63
2023/03/29 08:06:27;;;;;;;18.23;5.72;;;;;;;;;;5070594;28;20049;-65
2023/03/29 08:10:07;;;;;;;22.98;5.05;;;;;;;;;;5065753;28;20040;-65
2023/03/29 08:13:47;;;;;;;17.27;4.60;;;;;;;;;;5059524;28;20038;-65
2023/03/29 08:17:02;;;;;;;14.38;4.32;;;;;;;;;;5065599;28;20051;-65
2023/03/29 08:20:43;;;;;;;11.38;4.03;;;;;;;;;;5063109;28;20444;-68
2023/03/29 08:24:23;;;;;;;14.45;5.20;;;;;;;;;;5057396;28;20306;-64
2023/03/29 08:28:04;;;;;;;17.85;5.20;;;;;;;;;;5056243;28;20044;-66
2023/03/29 08:31:45;;;;;;;17.63;5.13;;;;;;;;;;5059952;28;20068;-65
2023/03/29 08:35:26;;;;;;;13.13;4.78;;;;;;;;;;5064868;28;20052;-64
2023/03/29 08:39:08;;;;;;;20.90;4.95;;;;;;;;;;5057195;28;20128;-64
2023/03/29 08:43:00;;;;;;;18.50;5.00;;;;;;;;;;5064102;28;20566;-64
2023/03/29 08:46:13;;;;;;;20.58;4.75;;;;;;;;;;5047612;28;20098;-64
2023/03/29 08:49:53;;;;;;;20.45;4.95;;;;;;;;;;5059833;28;20044;-64
2023/03/29 08:53:36;;;;;;;24.70;4.30;;;;;;;;;;5059733;28;20301;-66
2023/03/29 08:57:18;;;;;;;19.98;3.90;;;;;;;;;;5060060;28;20032;-64
2023/03/29 09:00:44;;;;;;;18.70;4.10;;;;;;;;;;5064055;28;20770;-65
2023/03/29 09:04:24;;;;;;;21.15;4.32;;;;;;;;;;5062756;28;20048;-66
2023/03/29 09:08:03;;;;;;;22.27;3.70;;;;;;;;;;5055093;28;20153;-68
2023/03/29 09:11:07;;;;;;;21.60;4.03;;;;;;;;;;5060249;28;20520;-65
2023/03/29 09:14:29;;;;;;;13.85;4.00;;;;;;;;;;5065198;28;20040;-64
2023/03/29 09:18:14;;;;;;;18.02;3.90;;;;;;;;;;5063086;28;20052;-64
2023/03/29 09:21:30;;;;;;;18.63;4.75;;;;;;;;;;5061521;28;20125;-65
2023/03/29 09:24:48;;;;;;;21.05;4.10;;;;;;;;;;5052290;28;20733;-64
2023/03/29 09:28:30;;;;;;;18.48;4.95;;;;;;;;;;5060667;28;20626;-62
2023/03/29 09:32:11;;;;;;;20.48;4.03;;;;;;;;;;5066263;28;20139;-63
2023/03/29 09:36:06;;;;;;;17.42;3.97;;;;;;;;;;5067869;28;20318;-65
2023/03/29 09:39:48;;;;;;;17.10;4.55;;;;;;;;;;5067068;28;20068;-65
2023/03/29 09:43:27;;;;;;;12.82;3.25;;;;;;;;;;5058989;28;20290;-64
2023/03/29 09:47:10;;;;;;;14.35;3.63;;;;;;;;;;5064255;28;20121;-64
2023/03/29 09:50:37;;;;;;;20.33;3.67;;;;;;;;;;5064017;28;20086;-65
2023/03/29 09:54:17;;;;;;;19.73;4.38;;;;;;;;;;5065911;28;20039;-64
2023/03/29 09:57:59;;;;;;;13.68;3.80;;;;;;;;;;5058908;28;20036;-65
2023/03/29 10:01:40;;;;;;;17.80;4.10;;;;;;;;;;5060345;28;20071;-64
2023/03/29 10:05:19;;;;;;;16.38;3.65;;;;;;;;;;5064776;28;20505;-65
2023/03/29 10:08:59;;;;;;;20.20;3.70;;;;;;;;;;5064280;28;20044;-65
2023/03/29 10:12:39;;;;;;;25.60;4.28;;;;;;;;;;5058530;28;20060;-66
2023/03/29 10:16:21;;;;;;;16.45;3.35;;;;;;;;;;5065340;28;20056;-62
2023/03/29 10:19:45;;;;;;;10.88;2.75;;;;;;;;;;5061408;28;20662;-63
2023/03/29 10:23:27;;;;;;;21.55;3.15;;;;;;;;;;5057041;28;20083;-65
2023/03/29 10:27:07;;;;;;;11.80;2.42;;;;;;;;;;5060653;28;20068;-67
2023/03/29 10:30:48;;;;;;;16.88;2.85;;;;;;;;;;5059492;28;20055;-65
2023/03/29 10:34:34;;;;;;;11.15;2.70;;;;;;;;;;5062870;28;20052;-64
2023/03/29 10:37:39;;;;;;;10.82;2.58;;;;;;;;;;5059668;28;20048;-64
2023/03/29 10:40:06;;;;;;;9.00;2.30;;;;;;;;;;5070504;28;20137;-65
2023/03/29 10:42:31;;;;;;;19.85;2.92;;;;;;;;;;5071701;28;20142;-64
2023/03/29 10:44:59;;;;;;;17.35;2.80;;;;;;;;;;5066142;28;20053;-67
2023/03/29 10:47:29;;;;;;;14.02;2.95;;;;;;;;;;5067315;28;20049;-64
2023/03/29 10:50:00;;;;;;;10.35;2.97;;;;;;;;;;5061972;28;20149;-66
2023/03/29 10:52:28;;;;;;;10.77;2.67;;;;;;;;;;5056314;28;20392;-67
2023/03/29 10:54:55;;;;;;;13.38;3.35;;;;;;;;;;5057365;28;20048;-63
2023/03/29 10:57:45;;;;;;;11.88;3.08;;;;;;;;;;5060194;28;20302;-65
2023/03/29 11:00:38;;;;;;;18.58;3.83;;;;;;;;;;5058711;28;20059;-65
2023/03/29 11:03:09;;;;;;;16.88;3.30;;;;;;;;;;5071779;28;20535;-65
2023/03/29 11:05:38;;;;;;;17.52;4.00;;;;;;;;;;5071793;28;20056;-65
2023/03/29 11:08:16;;;;;;;15.07;3.35;;;;;;;;;;5068290;28;20484;-67
2023/03/29 11:10:52;;;;;;;15.23;3.28;;;;;;;;;;5066930;28;20287;-67
2023/03/29 11:13:39;;;;;;;14.73;3.42;;;;;;;;;;5061902;28;20053;-65
2023/03/29 11:16:16;;;;;;;15.70;4.25;;;;;;;;;;5071390;28;20495;-64
2023/03/29 11:19:10;;;;;;;12.57;4.57;;;;;;;;;;5062134;28;20048;-64
2023/03/29 11:22:02;;;;;;;12.73;4.03;;;;;;;;;;5071845;28;20071;-66
2023/03/29 11:24:46;;;;;;;14.07;3.55;;;;;;;;;;5071763;28;20048;-66
2023/03/29 11:27:22;;;;;;;18.50;4.18;;;;;;;;;;5069245;28;20079;-66
2023/03/29 11:29:58;;;;;;;10.75;3.38;;;;;;;;;;5064811;28;20344;-67
2023/03/29 11:32:42;;;;;;;19.30;3.97;;;;;;;;;;5050663;28;20052;-64
2023/03/29 11:35:30;;;;;;;12.23;3.42;;;;;;;;;;5065367;28;20032;-65
2023/03/29 11:38:12;;;;;;;14.13;3.60;;;;;;;;;;5057754;28;20400;-64
2023/03/29 11:40:56;;;;;;;16.75;3.10;;;;;;;;;;5076928;28;20116;-65
2023/03/29 11:43:34;;;;;;;16.02;3.22;;;;;;;;;;5059985;28;20037;-66
2023/03/29 11:46:16;;;;;;;16.73;3.50;;;;;;;;;;5064099;28;20118;-64
2023/03/29 11:49:09;;;;;;;8.52;2.85;;;;;;;;;;5062598;28;20052;-65
2023/03/29 11:51:44;;;;;;;18.48;3.80;;;;;;;;;;5056775;28;20060;-65
2023/03/29 11:54:28;;;;;;;20.80;4.20;;;;;;;;;;5062994;28;20521;-66
2023/03/29 11:57:00;;;;;;;17.35;3.78;;;;;;;;;;5064110;28;20049;-65
2023/03/29 11:59:40;;;;;;;19.20;3.72;;;;;;;;;;5064031;28;20680;-67
2023/03/29 12:02:16;;;;;;;11.57;3.75;;;;;;;;;;5059256;28;20052;-64
2023/03/29 12:04:48;;;;;;;10.93;3.33;;;;;;;;;;5064648;28;20045;-68
2023/03/29 12:07:21;;;;;;;10.57;3.00;;;;;;;;;;5064035;28;20672;-66
2023/03/29 12:09:55;;;;;;;12.07;2.90;;;;;;;;;;5059650;28;20061;-63
2023/03/29 12:12:25;;;;;;;10.40;3.28;;;;;;;;;;5065782;28;20053;-65
2023/03/29 12:15:06;;;;;;;12.15;3.30;;;;;;;;;;5064932;28;20044;-65
2023/03/29 12:17:47;;;;;;;17.90;2.80;;;;;;;;;;5067452;28;20339;-66
2023/03/29 12:20:26;;;;;;;9.07;2.30;;;;;;;;;;5063722;28;20098;-66
2023/03/29 12:22:53;;;;;;;15.85;4.32;;;;;;;;;;5062547;28;20739;-66
2023/03/29 12:25:25;;;;;;;14.38;2.53;;;;;;;;;;5065969;28;20507;-65
2023/03/29 12:28:03;;;;;;;9.50;2.45;;;;;;;;;;5066842;28;20519;-66
2023/03/29 12:30:49;;;;;;;15.55;2.53;;;;;;;;;;5059734;28;20045;-64
2023/03/29 12:33:24;;;;;;;17.08;5.88;;;;;;;;;;5060006;28;20133;-65
2023/03/29 12:35:52;;;;;;;14.70;3.78;;;;;;;;;;5059009;28;20057;-66
2023/03/29 12:38:26;;;;;;;7.50;2.08;;;;;;;;;;5057381;28;20051;-65
2023/03/29 12:40:58;;;;;;;11.57;2.30;;;;;;;;;;5061486;28;20063;-65
2023/03/29 12:43:42;;;;;;;10.30;2.40;;;;;;;;;;5059579;28;20075;-64
2023/03/29 12:46:18;;;;;;;13.80;2.95;;;;;;;;;;5061143;28;20045;-67
2023/03/29 12:48:48;;;;;;;14.10;3.25;;;;;;;;;;5071508;28;20314;-66
2023/03/29 12:51:18;;;;;;;10.13;1.92;;;;;;;;;;5061401;28;20044;-67
2023/03/29 12:53:48;;;;;;;8.82;2.60;;;;;;;;;;5054120;28;20052;-65
2023/03/29 12:56:18;;;;;;;9.43;2.15;;;;;;;;;;5063707;28;20060;-64
2023/03/29 12:59:06;;;;;;;6.68;2.10;;;;;;;;;;5053583;28;20056;-65
2023/03/29 13:01:35;;;;;;;10.05;2.42;;;;;;;;;;5059448;28;20070;-62
2023/03/29 13:04:21;;;;;;;8.13;2.95;;;;;;;;;;5064817;28;20040;-63
2023/03/29 13:06:47;;;;;;;8.82;2.30;;;;;;;;;;5064437;28;20059;-65
2023/03/29 13:09:33;;;;;;;8.40;2.55;;;;;;;;;;5066797;28;20044;-65
2023/03/29 13:12:34;;;;;;;9.80;2.22;;;;;;;;;;5066281;28;20559;-65
2023/03/29 13:15:03;;;;;;;8.95;1.60;;;;;;;;;;5041176;28;20048;-65
2023/03/29 13:17:56;;;;;;;8.32;1.88;;;;;;;;;;5067017;28;20072;-64
2023/03/29 13:20:39;;;;;;;6.15;1.83;;;;;;;;;;5066274;28;20051;-63
2023/03/29 13:23:27;;;;;;;7.63;1.90;;;;;;;;;;5055948;28;20049;-64
2023/03/29 13:26:17;;;;;;;5.70;1.80;;;;;;;;;;5065157;28;20102;-65
2023/03/29 13:28:43;;;;;;;5.25;1.60;;;;;;;;;;5066208;28;20064;-64
2023/03/29 13:31:25;;;;;;;6.05;1.50;;;;;;;;;;5063633;28;20132;-65
2023/03/29 13:34:31;;;;;;;7.68;1.70;;;;;;;;;;5067253;28;20123;-63
2023/03/29 13:36:59;;;;;;;;;;;;;;;;;;5063359;28;20389;-68
2023/03/29 13:39:33;;;;;;;7.38;1.75;;;;;;;;;;5064133;28;20229;-67
2023/03/29 13:42:37;;;;;;;5.60;1.47;;;;;;;;;;5065051;28;20049;-65
2023/03/29 13:45:22;;;;;;;6.97;1.83;;;;;;;;;;5061141;28;20070;-67
2023/03/29 13:48:05;;;;;;;13.35;1.92;;;;;;;;;;5064033;28;20073;-65
2023/03/29 13:50:39;;;;;;;6.25;1.60;;;;;;;;;;5059225;28;20049;-67
2023/03/29 13:53:38;;;;;;;11.80;2.53;;;;;;;;;;5068729;28;20040;-65
2023/03/29 13:56:09;;;;;;;9.45;2.67;;;;;;;;;;5065415;28;20057;-66
2023/03/29 13:59:24;;;;;;;8.90;1.85;;;;;;;;;;5065759;28;20056;-64
2023/03/29 14:03:10;;;;;;;8.35;1.80;;;;;;;;;;5058509;28;20388;-65
2023/03/29 14:06:32;;;;;;;;;;;;;;;;;;5057085;28;20094;-66
2023/03/29 14:10:12;;;;;;;10.18;2.00;;;;;;;;;;5064483;28;19927;-66
2023/03/29 14:13:52;;;;;;;11.68;3.22;;;;;;;;;;5060497;28;20036;-66
2023/03/29 14:17:34;;;;;;;10.68;2.78;;;;;;;;;;5061882;28;20493;-66
2023/03/29 14:21:13;;;;;;;10.27;3.10;;;;;;;;;;5060598;28;20631;-65
2023/03/29 14:24:57;;;;;;;9.90;2.92;;;;;;;;;;5063309;28;20037;-64
2023/03/29 14:28:20;;;;;;;16.52;2.20;;;;;;;;;;5066864;28;20048;-66
2023/03/29 14:32:00;;;;;;;12.60;2.53;;;;;;;;;;5068462;28;20040;-63
2023/03/29 14:35:41;;;;;;;9.05;1.92;;;;;;;;;;5059151;28;20055;-63
2023/03/29 14:39:21;;;;;;;10.07;2.20;;;;;;;;;;5063613;28;20079;-66
2023/03/29 14:43:04;;;;;;;11.65;2.53;;;;;;;;;;5065921;28;20323;-64
2023/03/29 14:46:45;;;;;;;8.32;2.17;;;;;;;;;;5060663;28;20047;-66
2023/03/29 14:50:25;;;;;;;13.15;2.08;;;;;;;;;;5062949;28;20060;-66
2023/03/29 14:54:06;;;;;;;14.10;2.78;;;;;;;;;;5064227;28;20609;-67
2023/03/29 14:57:46;;;;;;;13.10;2.47;;;;;;;;;;5066328;28;20051;-64
2023/03/29 15:01:26;;;;;;;13.20;2.88;;;;;;;;;;5060510;28;20047;-70
2023/03/29 15:05:07;;;;;;;11.48;2.10;;;;;;;;;;5063889;28;20036;-64
2023/03/29 15:08:27;;;;;;;13.80;2.20;;;;;;;;;;5065887;28;20476;-67
2023/03/29 15:12:13;;;;;;;12.05;2.47;;;;;;;;;;5055195;28;20075;-64
2023/03/29 15:15:53;;;;;;;15.43;2.63;;;;;;;;;;5056388;28;20122;-62
2023/03/29 15:19:34;;;;;;;12.75;2.20;;;;;;;;;;5058038;28;20102;-65
2023/03/29 15:23:12;;;;;;;11.02;2.33;;;;;;;;;;5064235;28;20102;-66
2023/03/29 15:26:53;;;;;;;8.95;2.30;;;;;;;;;;5056423;28;20052;-66
2023/03/29 15:30:40;;;;;;;14.25;2.20;;;;;;;;;;5058664;28;20055;-65
2023/03/29 15:34:20;;;;;;;8.98;2.30;;;;;;;;;;5050700;28;20063;-64
2023/03/29 15:38:02;;;;;;;12.43;2.33;;;;;;;;;;5058819;28;20046;-66
2023/03/29 15:41:41;;;;;;;15.40;2.97;;;;;;;;;;5059350;28;20392;-62
2023/03/29 15:45:21;;;;;;;10.65;2.70;;;;;;;;;;5059829;28;20055;-63
2023/03/29 15:49:01;;;;;;;11.30;2.53;;;;;;;;;;5059111;28;20041;-65
2023/03/29 15:52:42;;;;;;;9.93;2.10;;;;;;;;;;5055512;28;20131;-63
2023/03/29 15:56:25;;;;;;;12.75;2.60;;;;;;;;;;5058666;28;20082;-63
2023/03/29 16:00:06;;;;;;;18.30;2.65;;;;;;;;;;5055504;28;20044;-65
2023/03/29 16:03:46;;;;;;;16.30;2.45;;;;;;;;;;5064213;28;20047;-68
2023/03/29 16:07:26;;;;;;;11.75;1.98;;;;;;;;;;5068971;28;20052;-66
2023/03/29 16:11:06;;;;;;;11.40;2.40;;;;;;;;;;5066257;28;20084;-64
2023/03/29 16:14:50;;;;;;;11.45;2.00;;;;;;;;;;5070983;28;20153;-70
2023/03/29 16:18:30;;;;;;;11.63;1.88;;;;;;;;;;5061429;28;20040;-63
2023/03/29 16:22:12;;;;;;;13.23;2.28;;;;;;;;;;5062191;28;20400;-64
2023/03/29 16:25:55;;;;;;;9.70;2.22;;;;;;;;;;5062321;28;20086;-66
2023/03/29 16:29:35;;;;;;;11.88;2.60;;;;;;;;;;5053523;28;21812;-66
2023/03/29 16:33:16;;;;;;;11.95;2.30;;;;;;;;;;5072320;28;20067;-66
2023/03/29 16:36:56;;;;;;;12.80;2.45;;;;;;;;;;5065746;28;20036;-66
2023/03/29 16:40:37;;;;;;;15.27;2.88;;;;;;;;;;5068273;28;20465;-67
2023/03/29 16:44:17;;;;;;;13.75;2.45;;;;;;;;;;5067877;28;20132;-66
2023/03/29 16:48:00;;;;;;;10.93;2.75;;;;;;;;;;5069230;28;20040;-64
2023/03/29 16:51:40;;;;;;;8.38;2.40;;;;;;;;;;5061886;28;20492;-64
2023/03/29 16:55:20;;;;;;;12.95;2.67;;;;;;;;;;5068516;28;20052;-63
2023/03/29 16:59:01;;;;;;;11.48;2.13;;;;;;;;;;5064675;28;20385;-64
2023/03/29 17:02:42;;;;;;;10.60;2.47;;;;;;;;;;5066346;28;20076;-63
2023/03/29 17:06:25;;;;;;;15.23;2.42;;;;;;;;;;5079555;28;20044;-65
2023/03/29 17:10:05;;;;;;;13.25;2.05;;;;;;;;;;5068258;28;20110;-64
2023/03/29 17:13:45;;;;;;;13.73;2.35;;;;;;;;;;5068678;28;20238;-63
2023/03/29 17:17:25;;;;;;;9.88;2.53;;;;;;;;;;5074829;28;20145;-65
2023/03/29 17:21:06;;;;;;;12.00;2.38;;;;;;;;;;5064217;28;20480;-64
2023/03/29 17:24:46;;;;;;;22.58;3.30;;;;;;;;;;5068418;28;20048;-65
2023/03/29 17:28:27;;;;;;;10.98;2.88;;;;;;;;;;5072116;28;20036;-68
2023/03/29 17:32:07;;;;;;;17.20;3.60;;;;;;;;;;5068078;28;20048;-67
2023/03/29 17:35:47;;;;;;;12.82;2.50;;;;;;;;;;5065353;28;20044;-67
2023/03/29 17:39:28;;;;;;;20.63;2.75;;;;;;;;;;5068997;28;20051;-65
2023/03/29 17:43:08;;;;;;;18.73;2.90;;;;;;;;;;5066041;28;20068;-64
2023/03/29 17:46:48;;;;;;;13.20;2.28;;;;;;;;;;5075666;28;20044;-63
2023/03/29 17:50:31;;;;;;;10.18;2.40;;;;;;;;;;5055502;28;20155;-64
2023/03/29 17:54:12;;;;;;;13.93;3.03;;;;;;;;;;5058146;28;20127;-62
2023/03/29 17:57:52;;;;;;;13.55;2.38;;;;;;;;;;5061717;28;20106;-64
2023/03/29 18:01:34;;;;;;;14.48;3.33;;;;;;;;;;5055577;28;20518;-61
2023/03/29 18:05:14;;;;;;;10.25;2.35;;;;;;;;;;5062164;28;20094;-62
2023/03/29 18:08:55;;;;;;;18.58;2.78;;;;;;;;;;5059314;28;20101;-62
2023/03/29 18:12:36;;;;;;;16.17;3.17;;;;;;;;;;5061583;28;20045;-60
2023/03/29 18:16:16;;;;;;;14.82;2.47;;;;;;;;;;5065948;28;20406;-60
2023/03/29 18:19:56;;;;;;;17.15;2.40;;;;;;;;;;5058032;28;20085;-61
2023/03/29 18:23:41;;;;;;;14.95;2.30;;;;;;;;;;5062614;28;20051;-63
2023/03/29 18:27:20;;;;;;;14.55;2.88;;;;;;;;;;5061806;28;20052;-64
2023/03/29 18:31:00;;;;;;;14.70;2.50;;;;;;;;;;5061592;28;20059;-63
2023/03/29 18:34:41;;;;;;;14.20;2.70;;;;;;;;;;5050905;28;20048;-64
2023/03/29 18:38:21;;;;;;;16.85;2.42;;;;;;;;;;5057102;28;20462;-64
2023/03/29 18:42:01;;;;;;;15.52;2.35;;;;;;;;;;5063352;28;20047;-67
2023/03/29 18:45:43;;;;;;;14.85;2.63;;;;;;;;;;5057386;28;20443;-66
2023/03/29 18:49:24;;;;;;;12.27;2.40;;;;;;;;;;5062762;28;20508;-66
2023/03/29 18:53:05;;;;;;;15.95;2.35;;;;;;;;;;5056914;28;20131;-64
2023/03/29 18:56:34;;;;;;;16.98;2.78;;;;;;;;;;5058040;28;20187;-65
2023/03/29 19:00:14;;;;;;;12.20;2.40;;;;;;;;;;5058922;28;20125;-64
2023/03/29 19:03:54;;;;;;;15.52;2.50;;;;;;;;;;5060698;28;20033;-65
2023/03/29 19:07:34;;;;;;;15.32;3.00;;;;;;;;;;5066939;28;20048;-65
2023/03/29 19:10:37;;;;;;;12.30;2.50;;;;;;;;;;5062049;28;20052;-64
2023/03/29 19:13:04;;;;;;;11.25;2.30;;;;;;;;;;5057892;28;20048;-63
2023/03/29 19:15:33;;;;;;;17.25;2.60;;;;;;;;;;5050274;28;20052;-65
2023/03/29 19:17:59;;;;;;;18.45;2.83;;;;;;;;;;5053368;28;20057;-65
2023/03/29 19:20:28;;;;;;;9.23;2.90;;;;;;;;;;5056100;28;20728;-65
2023/03/29 19:22:54;;;;;;;13.63;2.97;;;;;;;;;;5053243;28;20048;-65
2023/03/29 19:25:20;;;;;;;16.25;3.25;;;;;;;;;;5054570;28;20329;-65
2023/03/29 19:27:46;;;;;;;14.52;3.05;;;;;;;;;;5053711;28;20056;-65
2023/03/29 19:30:55;;;;;;;16.48;2.70;;;;;;;;;;5051516;28;20159;-66
2023/03/29 19:34:36;;;;;;;11.13;2.58;;;;;;;;;;5058065;28;20182;-64
2023/03/29 19:38:15;;;;;;;12.63;2.85;;;;;;;;;;5056293;28;20498;-66
2023/03/29 19:41:56;;;;;;;10.77;2.88;;;;;;;;;;5052162;28;20059;-64
2023/03/29 19:44:24;;;;;;;13.30;2.65;;;;;;;;;;5051019;28;20997;-65
2023/03/29 19:46:50;;;;;;;18.67;2.50;;;;;;;;;;5050824;28;20135;-63
2023/03/29 19:49:16;;;;;;;10.10;2.25;;;;;;;;;;5055225;28;20070;-64
2023/03/29 19:52:23;;;;;;;22.88;3.63;;;;;;;;;;5049947;28;20040;-65
2023/03/29 19:55:25;;;;;;;14.23;2.90;;;;;;;;;;5051694;28;20052;-64